sensor_id;sensor_type;location;lat;lon;timestamp;temperature;humidity
5508;DHT22;2776;51.046;6.772;2023-02-07T00:02:17;0.70;99.90
5508;DHT22;2776;51.046;6.772;2023-02-07T00:04:44;0.70;99.90
5508;DHT22;2776;51.046;6.772;2023-02-07T00:07:11;0.70;99.90
5508;DHT22;2776;51.046;6.772;2023-02-07T00:09:39;0.70;99.90
5508;DHT22;2776;51.046;6.772;2023-02-07T00:12:06;0.60;99.90
5508;DHT22;2776;51.046;6.772;2023-02-07T00:14:33;0.60;99.90
5508;DHT22;2776;51.046;6.772;2023-02-07T00:17:00;0.60;99.90
5508;DHT22;2776;51.046;6.772;2023-02-07T00:19:27;0.70;99.90
5508;DHT22;2776;51.046;6.772;2023-02-07T00:21:54;0.70;99.90
5508;DHT22;2776;51.046;6.772;2023-02-07T00:24:20;0.70;99.90
5508;DHT22;2776;51.046;6.772;2023-02-07T00:26:48;0.70;99.90
5508;DHT22;2776;51.046;6.772;2023-02-07T00:29:17;0.70;99.90
5508;DHT22;2776;51.046;6.772;2023-02-07T00:31:44;0.70;99.90
5508;DHT22;2776;51.046;6.772;2023-02-07T00:34:11;0.80;99.90
5508;DHT22;2776;51.046;6.772;2023-02-07T00:36:38;0.80;99.90
5508;DHT22;2776;51.046;6.772;2023-02-07T00:39:07;0.80;99.90
5508;DHT22;2776;51.046;6.772;2023-02-07T00:41:34;0.80;99.90
5508;DHT22;2776;51.046;6.772;2023-02-07T00:44:02;0.90;99.90
5508;DHT22;2776;51.046;6.772;2023-02-07T00:46:29;0.90;99.90
5508;DHT22;2776;51.046;6.772;2023-02-07T00:48:56;0.80;99.90
5508;DHT22;2776;51.046;6.772;2023-02-07T00:51:23;0.80;99.90
5508;DHT22;2776;51.046;6.772;2023-02-07T00:53:51;0.80;99.90
5508;DHT22;2776;51.046;6.772;2023-02-07T00:56:20;0.80;99.90
5508;DHT22;2776;51.046;6.772;2023-02-07T00:58:47;0.70;99.90
5508;DHT22;2776;51.046;6.772;2023-02-07T01:01:15;0.70;99.90
5508;DHT22;2776;51.046;6.772;2023-02-07T01:03:42;0.70;99.90
5508;DHT22;2776;51.046;6.772;2023-02-07T01:06:09;0.60;99.90
5508;DHT22;2776;51.046;6.772;2023-02-07T01:08:36;0.70;99.90
5508;DHT22;2776;51.046;6.772;2023-02-07T01:11:06;0.60;99.90
5508;DHT22;2776;51.046;6.772;2023-02-07T01:13:33;0.60;99.90
5508;DHT22;2776;51.046;6.772;2023-02-07T01:16:00;0.60;99.90
5508;DHT22;2776;51.046;6.772;2023-02-07T01:18:28;0.60;99.90
5508;DHT22;2776;51.046;6.772;2023-02-07T01:20:56;0.60;99.90
5508;DHT22;2776;51.046;6.772;2023-02-07T01:23:22;0.50;99.90
5508;DHT22;2776;51.046;6.772;2023-02-07T01:25:49;0.50;99.90
5508;DHT22;2776;51.046;6.772;2023-02-07T01:28:16;0.50;99.90
5508;DHT22;2776;51.046;6.772;2023-02-07T01:30:43;0.50;99.90
5508;DHT22;2776;51.046;6.772;2023-02-07T01:33:10;0.50;99.90
5508;DHT22;2776;51.046;6.772;2023-02-07T01:35:38;0.50;99.90
5508;DHT22;2776;51.046;6.772;2023-02-07T01:38:05;0.50;99.90
5508;DHT22;2776;51.046;6.772;2023-02-07T01:40:35;0.50;99.90
5508;DHT22;2776;51.046;6.772;2023-02-07T01:43:02;0.50;99.90
5508;DHT22;2776;51.046;6.772;2023-02-07T01:45:32;0.40;99.90
5508;DHT22;2776;51.046;6.772;2023-02-07T01:48:03;0.40;99.90
5508;DHT22;2776;51.046;6.772;2023-02-07T01:50:31;0.40;99.90
5508;DHT22;2776;51.046;6.772;2023-02-07T01:53:01;0.40;99.90
5508;DHT22;2776;51.046;6.772;2023-02-07T01:55:33;0.40;99.90
5508;DHT22;2776;51.046;6.772;2023-02-07T01:58:01;0.40;99.90
5508;DHT22;2776;51.046;6.772;2023-02-07T02:00:29;0.30;99.90
5508;DHT22;2776;51.046;6.772;2023-02-07T02:02:56;0.30;99.90
5508;DHT22;2776;51.046;6.772;2023-02-07T02:05:24;0.30;99.90
5508;DHT22;2776;51.046;6.772;2023-02-07T02:07:51;0.30;99.90
5508;DHT22;2776;51.046;6.772;2023-02-07T02:10:21;0.30;99.90
5508;DHT22;2776;51.046;6.772;2023-02-07T02:13:00;0.30;99.90
5508;DHT22;2776;51.046;6.772;2023-02-07T02:15:35;0.20;99.90
5508;DHT22;2776;51.046;6.772;2023-02-07T02:18:25;0.20;99.90
5508;DHT22;2776;51.046;6.772;2023-02-07T02:27:15;0.00;99.90
5508;DHT22;2776;51.046;6.772;2023-02-07T02:33:23;-0.20;99.90
5508;DHT22;2776;51.046;6.772;2023-02-07T02:35:57;-0.40;99.90
5508;DHT22;2776;51.046;6.772;2023-02-07T02:38:30;-0.40;99.90
5508;DHT22;2776;51.046;6.772;2023-02-07T02:41:02;-0.50;99.90
5508;DHT22;2776;51.046;6.772;2023-02-07T02:43:35;-0.60;99.90
5508;DHT22;2776;51.046;6.772;2023-02-07T02:46:05;-0.60;99.90
5508;DHT22;2776;51.046;6.772;2023-02-07T02:48:34;-0.60;99.90
5508;DHT22;2776;51.046;6.772;2023-02-07T02:51:01;-0.60;99.90
5508;DHT22;2776;51.046;6.772;2023-02-07T02:53:29;-0.70;99.90
5508;DHT22;2776;51.046;6.772;2023-02-07T02:56:16;-0.70;99.90
5508;DHT22;2776;51.046;6.772;2023-02-07T02:59:04;-0.80;99.90
5508;DHT22;2776;51.046;6.772;2023-02-07T03:01:43;-0.90;99.90
5508;DHT22;2776;51.046;6.772;2023-02-07T03:04:30;-1.00;99.90
5508;DHT22;2776;51.046;6.772;2023-02-07T03:07:07;-1.00;99.90
5508;DHT22;2776;51.046;6.772;2023-02-07T03:09:45;-1.00;99.90
5508;DHT22;2776;51.046;6.772;2023-02-07T03:12:18;-1.10;99.90
5508;DHT22;2776;51.046;6.772;2023-02-07T03:14:55;-1.10;99.90
5508;DHT22;2776;51.046;6.772;2023-02-07T03:17:27;-1.10;99.90
5508;DHT22;2776;51.046;6.772;2023-02-07T03:20:02;-1.10;99.90
5508;DHT22;2776;51.046;6.772;2023-02-07T03:22:31;-1.20;99.90
5508;DHT22;2776;51.046;6.772;2023-02-07T03:25:00;-1.20;99.90
5508;DHT22;2776;51.046;6.772;2023-02-07T03:27:29;-1.20;99.90
5508;DHT22;2776;51.046;6.772;2023-02-07T03:29:59;-1.20;99.90
5508;DHT22;2776;51.046;6.772;2023-02-07T03:32:29;-1.20;99.90
5508;DHT22;2776;51.046;6.772;2023-02-07T03:35:02;-1.10;99.90
5508;DHT22;2776;51.046;6.772;2023-02-07T03:37:35;-1.10;99.90
5508;DHT22;2776;51.046;6.772;2023-02-07T03:40:03;-1.10;99.90
5508;DHT22;2776;51.046;6.772;2023-02-07T03:42:33;-1.10;99.90
5508;DHT22;2776;51.046;6.772;2023-02-07T03:45:01;-1.20;99.90
5508;DHT22;2776;51.046;6.772;2023-02-07T03:47:29;-1.30;99.90
5508;DHT22;2776;51.046;6.772;2023-02-07T03:49:55;-1.40;99.90
5508;DHT22;2776;51.046;6.772;2023-02-07T03:52:24;-1.50;99.90
5508;DHT22;2776;51.046;6.772;2023-02-07T03:54:50;-1.50;99.90
5508;DHT22;2776;51.046;6.772;2023-02-07T03:57:17;-1.50;99.90
5508;DHT22;2776;51.046;6.772;2023-02-07T03:59:44;-1.60;99.90
5508;DHT22;2776;51.046;6.772;2023-02-07T04:02:11;-1.60;99.90
5508;DHT22;2776;51.046;6.772;2023-02-07T04:04:38;-1.60;99.90
5508;DHT22;2776;51.046;6.772;2023-02-07T04:07:05;-1.60;99.90
5508;DHT22;2776;51.046;6.772;2023-02-07T04:09:33;-1.60;99.90
5508;DHT22;2776;51.046;6.772;2023-02-07T04:12:00;-1.60;99.90
5508;DHT22;2776;51.046;6.772;2023-02-07T04:14:27;-1.50;99.90
5508;DHT22;2776;51.046;6.772;2023-02-07T04:16:53;-1.60;99.90
5508;DHT22;2776;51.046;6.772;2023-02-07T04:19:20;-1.60;99.90
5508;DHT22;2776;51.046;6.772;2023-02-07T04:21:47;-1.50;99.90
5508;DHT22;2776;51.046;6.772;2023-02-07T04:24:14;-1.60;99.90
5508;DHT22;2776;51.046;6.772;2023-02-07T04:26:42;-1.60;99.90
5508;DHT22;2776;51.046;6.772;2023-02-07T04:29:09;-1.60;99.90
5508;DHT22;2776;51.046;6.772;2023-02-07T04:31:36;-1.60;99.90
5508;DHT22;2776;51.046;6.772;2023-02-07T04:34:03;-1.50;99.90
5508;DHT22;2776;51.046;6.772;2023-02-07T04:36:30;-1.50;99.90
5508;DHT22;2776;51.046;6.772;2023-02-07T04:38:57;-1.50;99.90
5508;DHT22;2776;51.046;6.772;2023-02-07T04:41:23;-1.60;99.90
5508;DHT22;2776;51.046;6.772;2023-02-07T04:43:52;-1.60;99.90
5508;DHT22;2776;51.046;6.772;2023-02-07T04:46:18;-1.60;99.90
5508;DHT22;2776;51.046;6.772;2023-02-07T04:48:45;-1.60;99.90
5508;DHT22;2776;51.046;6.772;2023-02-07T04:51:13;-1.60;99.90
5508;DHT22;2776;51.046;6.772;2023-02-07T04:53:40;-1.60;99.90
5508;DHT22;2776;51.046;6.772;2023-02-07T04:56:07;-1.70;99.90
5508;DHT22;2776;51.046;6.772;2023-02-07T04:58:34;-1.70;99.90
5508;DHT22;2776;51.046;6.772;2023-02-07T05:01:02;-1.70;99.90
5508;DHT22;2776;51.046;6.772;2023-02-07T05:03:29;-1.80;99.90
5508;DHT22;2776;51.046;6.772;2023-02-07T05:05:56;-1.80;99.90
5508;DHT22;2776;51.046;6.772;2023-02-07T05:08:22;-1.90;99.90
5508;DHT22;2776;51.046;6.772;2023-02-07T05:10:51;-1.90;99.90
5508;DHT22;2776;51.046;6.772;2023-02-07T05:13:19;-2.00;99.90
5508;DHT22;2776;51.046;6.772;2023-02-07T05:15:45;-2.00;99.90
5508;DHT22;2776;51.046;6.772;2023-02-07T05:18:14;-2.00;99.90
5508;DHT22;2776;51.046;6.772;2023-02-07T05:20:41;-2.00;99.90
5508;DHT22;2776;51.046;6.772;2023-02-07T05:23:08;-2.00;99.90
5508;DHT22;2776;51.046;6.772;2023-02-07T05:25:35;-2.10;99.90
5508;DHT22;2776;51.046;6.772;2023-02-07T05:28:02;-2.10;99.90
5508;DHT22;2776;51.046;6.772;2023-02-07T05:30:29;-2.00;99.90
5508;DHT22;2776;51.046;6.772;2023-02-07T05:32:55;-2.00;99.90
5508;DHT22;2776;51.046;6.772;2023-02-07T05:35:38;-1.90;99.90
5508;DHT22;2776;51.046;6.772;2023-02-07T05:38:06;-1.90;99.90
5508;DHT22;2776;51.046;6.772;2023-02-07T05:40:34;-2.10;99.90
5508;DHT22;2776;51.046;6.772;2023-02-07T05:43:01;-2.20;99.90
5508;DHT22;2776;51.046;6.772;2023-02-07T05:45:28;-2.20;99.90
5508;DHT22;2776;51.046;6.772;2023-02-07T05:47:54;-2.30;99.90
5508;DHT22;2776;51.046;6.772;2023-02-07T05:50:21;-2.30;99.90
5508;DHT22;2776;51.046;6.772;2023-02-07T05:52:50;-2.30;99.90
5508;DHT22;2776;51.046;6.772;2023-02-07T05:55:17;-2.30;99.90
5508;DHT22;2776;51.046;6.772;2023-02-07T05:57:44;-2.30;99.90
5508;DHT22;2776;51.046;6.772;2023-02-07T06:00:12;-2.30;99.90
5508;DHT22;2776;51.046;6.772;2023-02-07T06:02:40;-2.30;99.90
5508;DHT22;2776;51.046;6.772;2023-02-07T06:05:08;-2.20;99.90
5508;DHT22;2776;51.046;6.772;2023-02-07T06:07:37;-2.10;99.90
5508;DHT22;2776;51.046;6.772;2023-02-07T06:10:06;-2.00;99.90
5508;DHT22;2776;51.046;6.772;2023-02-07T06:12:33;-1.90;99.90
5508;DHT22;2776;51.046;6.772;2023-02-07T06:15:00;-1.90;99.90
5508;DHT22;2776;51.046;6.772;2023-02-07T06:17:27;-1.80;99.90
5508;DHT22;2776;51.046;6.772;2023-02-07T06:19:54;-1.70;99.90
5508;DHT22;2776;51.046;6.772;2023-02-07T06:22:20;-1.60;99.90
5508;DHT22;2776;51.046;6.772;2023-02-07T06:24:47;-1.60;99.90
5508;DHT22;2776;51.046;6.772;2023-02-07T06:27:15;-1.60;99.90
5508;DHT22;2776;51.046;6.772;2023-02-07T06:29:42;-1.60;99.90
5508;DHT22;2776;51.046;6.772;2023-02-07T06:32:09;-1.50;99.90
5508;DHT22;2776;51.046;6.772;2023-02-07T06:34:35;-1.50;99.90
5508;DHT22;2776;51.046;6.772;2023-02-07T06:37:02;-1.50;99.90
5508;DHT22;2776;51.046;6.772;2023-02-07T06:39:29;-1.60;99.90
5508;DHT22;2776;51.046;6.772;2023-02-07T06:41:56;-1.50;99.90
5508;DHT22;2776;51.046;6.772;2023-02-07T06:44:24;-1.50;99.90
5508;DHT22;2776;51.046;6.772;2023-02-07T06:46:51;-1.50;99.90
5508;DHT22;2776;51.046;6.772;2023-02-07T06:49:17;-1.60;99.90
5508;DHT22;2776;51.046;6.772;2023-02-07T06:51:44;-1.60;99.90
5508;DHT22;2776;51.046;6.772;2023-02-07T06:54:11;-1.70;99.90
5508;DHT22;2776;51.046;6.772;2023-02-07T06:56:38;-1.70;99.90
5508;DHT22;2776;51.046;6.772;2023-02-07T06:59:04;-1.80;99.90
5508;DHT22;2776;51.046;6.772;2023-02-07T07:01:33;-1.90;99.90
5508;DHT22;2776;51.046;6.772;2023-02-07T07:03:59;-2.00;99.90
5508;DHT22;2776;51.046;6.772;2023-02-07T07:06:26;-2.00;99.90
5508;DHT22;2776;51.046;6.772;2023-02-07T07:08:53;-2.00;99.90
5508;DHT22;2776;51.046;6.772;2023-02-07T07:11:20;-2.00;99.90
5508;DHT22;2776;51.046;6.772;2023-02-07T07:13:46;-2.10;99.90
5508;DHT22;2776;51.046;6.772;2023-02-07T07:16:13;-2.00;99.90
5508;DHT22;2776;51.046;6.772;2023-02-07T07:18:41;-2.00;99.90
5508;DHT22;2776;51.046;6.772;2023-02-07T07:21:08;-2.00;99.90
5508;DHT22;2776;51.046;6.772;2023-02-07T07:23:35;-1.90;99.90
5508;DHT22;2776;51.046;6.772;2023-02-07T07:26:02;-1.90;99.90
5508;DHT22;2776;51.046;6.772;2023-02-07T07:28:29;-1.90;99.90
5508;DHT22;2776;51.046;6.772;2023-02-07T07:31:01;-1.90;99.90
5508;DHT22;2776;51.046;6.772;2023-02-07T07:33:28;-1.90;99.90
5508;DHT22;2776;51.046;6.772;2023-02-07T07:35:57;-1.80;99.90
5508;DHT22;2776;51.046;6.772;2023-02-07T07:38:24;-1.80;99.90
5508;DHT22;2776;51.046;6.772;2023-02-07T07:40:51;-1.80;99.90
5508;DHT22;2776;51.046;6.772;2023-02-07T07:43:19;-1.80;99.90
5508;DHT22;2776;51.046;6.772;2023-02-07T07:45:50;-1.70;99.90
5508;DHT22;2776;51.046;6.772;2023-02-07T07:48:17;-1.60;99.90
5508;DHT22;2776;51.046;6.772;2023-02-07T07:50:43;-1.60;99.90
5508;DHT22;2776;51.046;6.772;2023-02-07T07:53:11;-1.40;99.90
5508;DHT22;2776;51.046;6.772;2023-02-07T07:55:38;-0.80;99.90
5508;DHT22;2776;51.046;6.772;2023-02-07T07:58:05;0.20;99.90
5508;DHT22;2776;51.046;6.772;2023-02-07T08:00:32;1.20;99.90
5508;DHT22;2776;51.046;6.772;2023-02-07T08:02:59;2.20;99.90
5508;DHT22;2776;51.046;6.772;2023-02-07T08:05:26;2.80;99.90
5508;DHT22;2776;51.046;6.772;2023-02-07T08:07:52;3.10;99.90
5508;DHT22;2776;51.046;6.772;2023-02-07T08:10:20;3.40;99.90
5508;DHT22;2776;51.046;6.772;2023-02-07T08:12:47;3.60;99.90
5508;DHT22;2776;51.046;6.772;2023-02-07T08:15:14;4.10;99.90
5508;DHT22;2776;51.046;6.772;2023-02-07T08:17:41;4.50;99.90
5508;DHT22;2776;51.046;6.772;2023-02-07T08:20:08;4.50;99.90
5508;DHT22;2776;51.046;6.772;2023-02-07T08:22:37;4.40;99.90
5508;DHT22;2776;51.046;6.772;2023-02-07T08:25:05;4.00;99.90
5508;DHT22;2776;51.046;6.772;2023-02-07T08:27:33;3.80;99.90
5508;DHT22;2776;51.046;6.772;2023-02-07T08:30:00;3.80;99.90
5508;DHT22;2776;51.046;6.772;2023-02-07T08:32:27;3.70;99.90
5508;DHT22;2776;51.046;6.772;2023-02-07T08:34:54;4.20;99.90
5508;DHT22;2776;51.046;6.772;2023-02-07T08:37:21;4.90;99.90
5508;DHT22;2776;51.046;6.772;2023-02-07T08:39:48;5.70;99.90
5508;DHT22;2776;51.046;6.772;2023-02-07T08:42:17;6.10;99.90
5508;DHT22;2776;51.046;6.772;2023-02-07T08:44:46;6.30;99.90
5508;DHT22;2776;51.046;6.772;2023-02-07T08:47:13;6.40;99.90
5508;DHT22;2776;51.046;6.772;2023-02-07T08:49:40;6.60;99.90
5508;DHT22;2776;51.046;6.772;2023-02-07T08:52:07;6.50;99.90
5508;DHT22;2776;51.046;6.772;2023-02-07T08:54:34;6.40;99.90
5508;DHT22;2776;51.046;6.772;2023-02-07T08:57:01;6.50;99.90
5508;DHT22;2776;51.046;6.772;2023-02-07T08:59:28;7.00;99.90
5508;DHT22;2776;51.046;6.772;2023-02-07T09:01:56;7.70;99.90
5508;DHT22;2776;51.046;6.772;2023-02-07T09:04:23;8.40;99.90
5508;DHT22;2776;51.046;6.772;2023-02-07T09:06:51;8.70;94.80
5508;DHT22;2776;51.046;6.772;2023-02-07T09:09:18;9.00;90.90
5508;DHT22;2776;51.046;6.772;2023-02-07T09:11:44;9.50;87.80
5508;DHT22;2776;51.046;6.772;2023-02-07T09:14:11;9.60;83.00
5508;DHT22;2776;51.046;6.772;2023-02-07T09:16:38;8.90;78.10
5508;DHT22;2776;51.046;6.772;2023-02-07T09:19:06;8.70;83.80
5508;DHT22;2776;51.046;6.772;2023-02-07T09:21:33;8.50;86.60
5508;DHT22;2776;51.046;6.772;2023-02-07T09:24:02;8.30;90.10
5508;DHT22;2776;51.046;6.772;2023-02-07T09:26:28;7.50;87.00
5508;DHT22;2776;51.046;6.772;2023-02-07T09:28:57;6.90;97.50
5508;DHT22;2776;51.046;6.772;2023-02-07T09:31:24;6.10;97.50
5508;DHT22;2776;51.046;6.772;2023-02-07T09:33:51;6.20;99.90
5508;DHT22;2776;51.046;6.772;2023-02-07T09:36:21;6.40;99.90
5508;DHT22;2776;51.046;6.772;2023-02-07T09:38:48;6.30;99.90
5508;DHT22;2776;51.046;6.772;2023-02-07T09:41:21;6.70;99.90
5508;DHT22;2776;51.046;6.772;2023-02-07T09:43:58;6.90;99.90
5508;DHT22;2776;51.046;6.772;2023-02-07T09:46:31;6.90;99.90
5508;DHT22;2776;51.046;6.772;2023-02-07T09:49:02;7.10;99.90
5508;DHT22;2776;51.046;6.772;2023-02-07T09:51:32;7.30;98.10
5508;DHT22;2776;51.046;6.772;2023-02-07T09:54:02;7.50;95.90
5508;DHT22;2776;51.046;6.772;2023-02-07T09:56:30;7.70;92.60
5508;DHT22;2776;51.046;6.772;2023-02-07T09:59:01;7.70;92.10
5508;DHT22;2776;51.046;6.772;2023-02-07T10:01:33;7.80;91.80
5508;DHT22;2776;51.046;6.772;2023-02-07T10:04:12;7.50;90.90
5508;DHT22;2776;51.046;6.772;2023-02-07T10:06:49;7.10;93.60
5508;DHT22;2776;51.046;6.772;2023-02-07T10:09:20;6.60;96.00
5508;DHT22;2776;51.046;6.772;2023-02-07T10:11:51;6.00;99.90
5508;DHT22;2776;51.046;6.772;2023-02-07T10:14:44;5.70;99.90
5508;DHT22;2776;51.046;6.772;2023-02-07T10:17:29;5.40;99.90
5508;DHT22;2776;51.046;6.772;2023-02-07T10:20:05;5.10;99.90
5508;DHT22;2776;51.046;6.772;2023-02-07T10:22:45;5.00;99.90
5508;DHT22;2776;51.046;6.772;2023-02-07T10:25:25;4.90;99.90
5508;DHT22;2776;51.046;6.772;2023-02-07T10:28:23;4.80;99.90
5508;DHT22;2776;51.046;6.772;2023-02-07T10:30:55;4.90;99.90
5508;DHT22;2776;51.046;6.772;2023-02-07T10:33:29;4.80;99.90
5508;DHT22;2776;51.046;6.772;2023-02-07T10:36:00;4.90;99.90
5508;DHT22;2776;51.046;6.772;2023-02-07T10:38:34;4.90;99.90
5508;DHT22;2776;51.046;6.772;2023-02-07T10:41:08;4.80;99.90
5508;DHT22;2776;51.046;6.772;2023-02-07T10:43:38;4.80;99.90
5508;DHT22;2776;51.046;6.772;2023-02-07T10:46:09;4.70;99.90
5508;DHT22;2776;51.046;6.772;2023-02-07T10:48:37;4.70;99.90
5508;DHT22;2776;51.046;6.772;2023-02-07T10:51:18;4.70;99.90
5508;DHT22;2776;51.046;6.772;2023-02-07T10:53:49;4.60;99.90
5508;DHT22;2776;51.046;6.772;2023-02-07T10:56:18;4.70;99.90
5508;DHT22;2776;51.046;6.772;2023-02-07T10:58:45;4.70;99.90
5508;DHT22;2776;51.046;6.772;2023-02-07T11:01:20;4.60;99.90
5508;DHT22;2776;51.046;6.772;2023-02-07T11:03:48;4.70;99.90
5508;DHT22;2776;51.046;6.772;2023-02-07T11:06:24;4.70;99.90
5508;DHT22;2776;51.046;6.772;2023-02-07T11:09:09;4.70;99.90
5508;DHT22;2776;51.046;6.772;2023-02-07T11:11:37;4.70;99.90
5508;DHT22;2776;51.046;6.772;2023-02-07T11:14:06;4.60;99.90
5508;DHT22;2776;51.046;6.772;2023-02-07T11:16:34;4.60;99.90
5508;DHT22;2776;51.046;6.772;2023-02-07T11:19:02;4.70;99.90
5508;DHT22;2776;51.046;6.772;2023-02-07T11:21:33;4.70;99.90
5508;DHT22;2776;51.046;6.772;2023-02-07T11:24:05;4.80;99.90
5508;DHT22;2776;51.046;6.772;2023-02-07T11:26:34;4.80;99.90
5508;DHT22;2776;51.046;6.772;2023-02-07T11:29:07;4.80;99.90
5508;DHT22;2776;51.046;6.772;2023-02-07T11:31:39;4.90;99.90
5508;DHT22;2776;51.046;6.772;2023-02-07T11:34:08;4.90;99.90
5508;DHT22;2776;51.046;6.772;2023-02-07T11:36:35;4.90;99.90
5508;DHT22;2776;51.046;6.772;2023-02-07T11:39:14;5.00;99.50
5508;DHT22;2776;51.046;6.772;2023-02-07T11:41:41;4.90;99.80
5508;DHT22;2776;51.046;6.772;2023-02-07T11:44:15;5.00;99.90
5508;DHT22;2776;51.046;6.772;2023-02-07T11:46:44;5.00;97.50
5508;DHT22;2776;51.046;6.772;2023-02-07T11:49:19;5.00;97.70
5508;DHT22;2776;51.046;6.772;2023-02-07T11:51:51;5.10;98.60
5508;DHT22;2776;51.046;6.772;2023-02-07T11:54:19;5.20;99.20
5508;DHT22;2776;51.046;6.772;2023-02-07T11:56:49;5.30;97.90
5508;DHT22;2776;51.046;6.772;2023-02-07T11:59:20;5.20;96.70
5508;DHT22;2776;51.046;6.772;2023-02-07T12:01:49;5.20;97.40
5508;DHT22;2776;51.046;6.772;2023-02-07T12:04:19;5.20;99.90
5508;DHT22;2776;51.046;6.772;2023-02-07T12:06:51;5.20;99.90
5508;DHT22;2776;51.046;6.772;2023-02-07T12:09:28;5.30;97.70
5508;DHT22;2776;51.046;6.772;2023-02-07T12:11:58;5.40;99.20
5508;DHT22;2776;51.046;6.772;2023-02-07T12:14:28;5.50;99.50
5508;DHT22;2776;51.046;6.772;2023-02-07T12:16:59;5.60;96.90
5508;DHT22;2776;51.046;6.772;2023-02-07T12:19:32;5.70;96.70
5508;DHT22;2776;51.046;6.772;2023-02-07T12:22:04;5.70;95.90
5508;DHT22;2776;51.046;6.772;2023-02-07T12:24:36;5.60;94.30
5508;DHT22;2776;51.046;6.772;2023-02-07T12:27:11;5.70;96.80
5508;DHT22;2776;51.046;6.772;2023-02-07T12:29:48;5.80;95.40
5508;DHT22;2776;51.046;6.772;2023-02-07T12:32:26;5.90;95.00
5508;DHT22;2776;51.046;6.772;2023-02-07T12:35:00;5.90;89.50
5508;DHT22;2776;51.046;6.772;2023-02-07T12:37:36;5.90;88.60
5508;DHT22;2776;51.046;6.772;2023-02-07T12:40:17;5.90;83.30
5508;DHT22;2776;51.046;6.772;2023-02-07T12:42:50;5.90;84.50
5508;DHT22;2776;51.046;6.772;2023-02-07T12:45:30;5.80;87.90
5508;DHT22;2776;51.046;6.772;2023-02-07T12:48:08;5.80;86.30
5508;DHT22;2776;51.046;6.772;2023-02-07T12:50:58;5.80;85.60
5508;DHT22;2776;51.046;6.772;2023-02-07T12:53:39;5.80;79.40
5508;DHT22;2776;51.046;6.772;2023-02-07T12:56:22;5.80;79.90
5508;DHT22;2776;51.046;6.772;2023-02-07T12:58:58;5.80;78.90
5508;DHT22;2776;51.046;6.772;2023-02-07T13:01:31;5.80;80.60
5508;DHT22;2776;51.046;6.772;2023-02-07T13:04:31;5.70;74.40
5508;DHT22;2776;51.046;6.772;2023-02-07T13:07:13;5.70;79.00
5508;DHT22;2776;51.046;6.772;2023-02-07T13:09:48;5.70;82.00
5508;DHT22;2776;51.046;6.772;2023-02-07T13:12:22;5.80;80.90
5508;DHT22;2776;51.046;6.772;2023-02-07T13:14:59;5.80;78.10
5508;DHT22;2776;51.046;6.772;2023-02-07T13:17:42;5.80;76.00
5508;DHT22;2776;51.046;6.772;2023-02-07T13:20:26;5.90;77.60
5508;DHT22;2776;51.046;6.772;2023-02-07T13:22:56;5.90;74.20
5508;DHT22;2776;51.046;6.772;2023-02-07T13:25:28;5.80;68.10
5508;DHT22;2776;51.046;6.772;2023-02-07T13:27:59;5.90;69.90
5508;DHT22;2776;51.046;6.772;2023-02-07T13:30:29;5.90;69.20
5508;DHT22;2776;51.046;6.772;2023-02-07T13:35:42;5.90;70.70
5508;DHT22;2776;51.046;6.772;2023-02-07T13:38:17;6.00;71.90
5508;DHT22;2776;51.046;6.772;2023-02-07T13:40:54;6.00;67.40
5508;DHT22;2776;51.046;6.772;2023-02-07T13:43:29;6.00;65.30
5508;DHT22;2776;51.046;6.772;2023-02-07T13:46:03;6.10;60.70
5508;DHT22;2776;51.046;6.772;2023-02-07T13:48:37;6.10;62.00
5508;DHT22;2776;51.046;6.772;2023-02-07T13:51:16;6.20;65.10
5508;DHT22;2776;51.046;6.772;2023-02-07T13:53:50;6.10;58.10
5508;DHT22;2776;51.046;6.772;2023-02-07T13:56:29;6.10;59.30
5508;DHT22;2776;51.046;6.772;2023-02-07T13:59:32;6.10;59.40
5508;DHT22;2776;51.046;6.772;2023-02-07T14:02:15;6.20;59.70
5508;DHT22;2776;51.046;6.772;2023-02-07T14:04:48;6.20;59.00
5508;DHT22;2776;51.046;6.772;2023-02-07T14:07:20;6.20;59.10
5508;DHT22;2776;51.046;6.772;2023-02-07T14:09:50;6.20;59.50
5508;DHT22;2776;51.046;6.772;2023-02-07T14:12:21;6.30;57.30
5508;DHT22;2776;51.046;6.772;2023-02-07T14:14:50;6.20;57.50
5508;DHT22;2776;51.046;6.772;2023-02-07T14:20:45;6.30;54.70
5508;DHT22;2776;51.046;6.772;2023-02-07T14:23:15;6.30;54.00
5508;DHT22;2776;51.046;6.772;2023-02-07T14:25:43;6.30;55.80
5508;DHT22;2776;51.046;6.772;2023-02-07T14:28:28;6.30;53.30
5508;DHT22;2776;51.046;6.772;2023-02-07T14:30:59;6.20;52.80
5508;DHT22;2776;51.046;6.772;2023-02-07T14:33:31;6.30;54.50
5508;DHT22;2776;51.046;6.772;2023-02-07T14:39:18;6.30;51.20
5508;DHT22;2776;51.046;6.772;2023-02-07T14:41:49;6.40;52.20
5508;DHT22;2776;51.046;6.772;2023-02-07T14:44:23;6.30;52.30
5508;DHT22;2776;51.046;6.772;2023-02-07T14:46:54;6.30;52.20
5508;DHT22;2776;51.046;6.772;2023-02-07T14:49:28;6.30;50.00
5508;DHT22;2776;51.046;6.772;2023-02-07T14:51:59;6.30;49.20
5508;DHT22;2776;51.046;6.772;2023-02-07T14:54:29;6.30;48.40
5508;DHT22;2776;51.046;6.772;2023-02-07T14:57:17;6.30;49.20
5508;DHT22;2776;51.046;6.772;2023-02-07T14:59:56;6.20;49.70
5508;DHT22;2776;51.046;6.772;2023-02-07T15:02:31;6.20;47.00
5508;DHT22;2776;51.046;6.772;2023-02-07T15:05:08;6.20;49.00
5508;DHT22;2776;51.046;6.772;2023-02-07T15:07:40;6.20;47.40
5508;DHT22;2776;51.046;6.772;2023-02-07T15:10:13;6.10;48.40
5508;DHT22;2776;51.046;6.772;2023-02-07T15:12:40;6.10;48.50
5508;DHT22;2776;51.046;6.772;2023-02-07T15:15:17;6.10;47.90
5508;DHT22;2776;51.046;6.772;2023-02-07T15:17:46;6.10;47.40
5508;DHT22;2776;51.046;6.772;2023-02-07T15:20:15;6.10;47.90
5508;DHT22;2776;51.046;6.772;2023-02-07T15:22:46;6.10;47.30
5508;DHT22;2776;51.046;6.772;2023-02-07T15:25:14;6.10;47.50
5508;DHT22;2776;51.046;6.772;2023-02-07T15:27:41;6.10;49.10
5508;DHT22;2776;51.046;6.772;2023-02-07T15:30:17;6.10;49.90
5508;DHT22;2776;51.046;6.772;2023-02-07T15:32:45;6.10;50.00
5508;DHT22;2776;51.046;6.772;2023-02-07T15:35:17;6.00;50.60
5508;DHT22;2776;51.046;6.772;2023-02-07T15:37:45;6.00;51.20
5508;DHT22;2776;51.046;6.772;2023-02-07T15:40:14;6.10;51.00
5508;DHT22;2776;51.046;6.772;2023-02-07T15:42:49;6.10;50.60
5508;DHT22;2776;51.046;6.772;2023-02-07T15:45:24;6.10;50.60
5508;DHT22;2776;51.046;6.772;2023-02-07T15:48:00;6.00;51.00
5508;DHT22;2776;51.046;6.772;2023-02-07T15:50:29;6.00;51.90
5508;DHT22;2776;51.046;6.772;2023-02-07T15:52:57;6.00;52.60
5508;DHT22;2776;51.046;6.772;2023-02-07T15:55:29;5.90;53.40
5508;DHT22;2776;51.046;6.772;2023-02-07T15:57:56;5.90;53.70
5508;DHT22;2776;51.046;6.772;2023-02-07T16:00:25;5.80;54.00
5508;DHT22;2776;51.046;6.772;2023-02-07T16:02:55;5.80;54.30
5508;DHT22;2776;51.046;6.772;2023-02-07T16:05:26;5.70;54.80
5508;DHT22;2776;51.046;6.772;2023-02-07T16:07:53;5.70;55.00
5508;DHT22;2776;51.046;6.772;2023-02-07T16:10:32;5.70;55.20
5508;DHT22;2776;51.046;6.772;2023-02-07T16:13:00;5.60;54.80
5508;DHT22;2776;51.046;6.772;2023-02-07T16:15:29;5.50;55.20
5508;DHT22;2776;51.046;6.772;2023-02-07T16:17:58;5.50;55.10
5508;DHT22;2776;51.046;6.772;2023-02-07T16:20:27;5.50;54.90
5508;DHT22;2776;51.046;6.772;2023-02-07T16:22:55;5.40;54.90
5508;DHT22;2776;51.046;6.772;2023-02-07T16:25:26;5.40;55.30
5508;DHT22;2776;51.046;6.772;2023-02-07T16:27:54;5.30;55.10
5508;DHT22;2776;51.046;6.772;2023-02-07T16:30:23;5.20;55.10
5508;DHT22;2776;51.046;6.772;2023-02-07T16:32:50;5.10;55.20
5508;DHT22;2776;51.046;6.772;2023-02-07T16:35:20;5.20;55.60
5508;DHT22;2776;51.046;6.772;2023-02-07T16:37:49;5.10;57.00
5508;DHT22;2776;51.046;6.772;2023-02-07T16:40:17;5.10;58.20
5508;DHT22;2776;51.046;6.772;2023-02-07T16:42:44;4.80;60.50
5508;DHT22;2776;51.046;6.772;2023-02-07T16:45:19;4.70;67.40
5508;DHT22;2776;51.046;6.772;2023-02-07T16:47:46;4.50;73.60
5508;DHT22;2776;51.046;6.772;2023-02-07T16:50:15;4.30;80.40
5508;DHT22;2776;51.046;6.772;2023-02-07T16:52:43;4.20;77.40